sensor_id;sensor_type;location;lat;lon;timestamp;P1;durP1;ratioP1;P2;durP2;ratioP2
21731;SDS011;11028;51.156;17.130;2022-11-11T00:04:58;61.47;;;31.38;;
21731;SDS011;11028;51.156;17.130;2022-11-11T00:12:33;60.25;;;30.80;;
21731;SDS011;11028;51.156;17.130;2022-11-11T00:28:55;50.25;;;24.90;;
21731;SDS011;11028;51.156;17.130;2022-11-11T00:36:31;46.67;;;23.48;;
21731;SDS011;11028;51.156;17.130;2022-11-11T00:44:07;47.03;;;22.20;;
21731;SDS011;11028;51.156;17.130;2022-11-11T01:00:28;34.72;;;18.88;;
21731;SDS011;11028;51.156;17.130;2022-11-11T01:08:03;34.10;;;18.27;;
21731;SDS011;11028;51.156;17.130;2022-11-11T01:15:41;31.65;;;16.95;;
21731;SDS011;11028;51.156;17.130;2022-11-11T01:23:17;32.40;;;16.50;;
21731;SDS011;11028;51.156;17.130;2022-11-11T01:30:54;31.17;;;15.60;;
21731;SDS011;11028;51.156;17.130;2022-11-11T01:38:34;35.55;;;17.27;;
21731;SDS011;11028;51.156;17.130;2022-11-11T01:46:15;33.40;;;17.02;;
21731;SDS011;11028;51.156;17.130;2022-11-11T01:53:56;32.58;;;16.80;;
21731;SDS011;11028;51.156;17.130;2022-11-11T02:01:36;39.70;;;21.52;;
21731;SDS011;11028;51.156;17.130;2022-11-11T02:09:11;35.90;;;21.25;;
21731;SDS011;11028;51.156;17.130;2022-11-11T02:16:49;54.00;;;24.65;;
21731;SDS011;11028;51.156;17.130;2022-11-11T02:24:27;44.65;;;25.80;;
21731;SDS011;11028;51.156;17.130;2022-11-11T02:32:03;43.03;;;22.95;;
21731;SDS011;11028;51.156;17.130;2022-11-11T02:39:41;51.53;;;28.05;;
21731;SDS011;11028;51.156;17.130;2022-11-11T02:47:19;63.92;;;34.65;;
21731;SDS011;11028;51.156;17.130;2022-11-11T02:54:55;70.20;;;35.20;;
21731;SDS011;11028;51.156;17.130;2022-11-11T03:02:31;67.53;;;35.83;;
21731;SDS011;11028;51.156;17.130;2022-11-11T03:10:08;67.60;;;34.90;;
21731;SDS011;11028;51.156;17.130;2022-11-11T03:17:43;62.70;;;30.98;;
21731;SDS011;11028;51.156;17.130;2022-11-11T03:25:21;70.35;;;34.40;;
21731;SDS011;11028;51.156;17.130;2022-11-11T03:33:12;71.53;;;36.25;;
21731;SDS011;11028;51.156;17.130;2022-11-11T03:40:50;69.45;;;33.58;;
21731;SDS011;11028;51.156;17.130;2022-11-11T03:48:30;67.85;;;33.63;;
21731;SDS011;11028;51.156;17.130;2022-11-11T03:56:08;65.38;;;32.05;;
21731;SDS011;11028;51.156;17.130;2022-11-11T04:03:46;53.40;;;29.92;;
21731;SDS011;11028;51.156;17.130;2022-11-11T04:11:41;63.17;;;32.90;;
21731;SDS011;11028;51.156;17.130;2022-11-11T04:19:18;59.38;;;32.17;;
21731;SDS011;11028;51.156;17.130;2022-11-11T04:27:12;56.87;;;31.30;;
21731;SDS011;11028;51.156;17.130;2022-11-11T04:34:49;56.75;;;32.05;;
21731;SDS011;11028;51.156;17.130;2022-11-11T04:42:27;54.47;;;31.20;;
21731;SDS011;11028;51.156;17.130;2022-11-11T04:50:03;38.28;;;22.88;;
21731;SDS011;11028;51.156;17.130;2022-11-11T04:57:44;46.58;;;26.25;;
21731;SDS011;11028;51.156;17.130;2022-11-11T05:05:20;38.72;;;21.40;;
21731;SDS011;11028;51.156;17.130;2022-11-11T05:13:00;36.28;;;20.00;;
21731;SDS011;11028;51.156;17.130;2022-11-11T05:20:55;35.78;;;18.85;;
21731;SDS011;11028;51.156;17.130;2022-11-11T05:28:50;25.83;;;12.23;;
21731;SDS011;11028;51.156;17.130;2022-11-11T05:36:25;30.70;;;15.95;;
21731;SDS011;11028;51.156;17.130;2022-11-11T05:44:04;33.10;;;16.75;;
21731;SDS011;11028;51.156;17.130;2022-11-11T06:00:25;27.23;;;15.20;;
21731;SDS011;11028;51.156;17.130;2022-11-11T06:08:01;27.58;;;14.95;;
21731;SDS011;11028;51.156;17.130;2022-11-11T06:15:38;24.48;;;13.90;;
21731;SDS011;11028;51.156;17.130;2022-11-11T06:23:14;27.77;;;15.15;;
21731;SDS011;11028;51.156;17.130;2022-11-11T06:30:51;28.42;;;14.50;;
21731;SDS011;11028;51.156;17.130;2022-11-11T06:38:31;28.38;;;14.43;;
21731;SDS011;11028;51.156;17.130;2022-11-11T06:46:12;29.23;;;13.73;;
21731;SDS011;11028;51.156;17.130;2022-11-11T06:53:50;26.65;;;14.63;;
21731;SDS011;11028;51.156;17.130;2022-11-11T07:01:28;29.80;;;15.77;;
21731;SDS011;11028;51.156;17.130;2022-11-11T07:09:04;31.23;;;15.45;;
21731;SDS011;11028;51.156;17.130;2022-11-11T07:16:42;30.25;;;15.65;;
21731;SDS011;11028;51.156;17.130;2022-11-11T07:24:17;36.47;;;17.83;;
21731;SDS011;11028;51.156;17.130;2022-11-11T07:31:54;27.33;;;14.38;;
21731;SDS011;11028;51.156;17.130;2022-11-11T07:39:30;32.78;;;15.95;;
21731;SDS011;11028;51.156;17.130;2022-11-11T07:47:08;30.70;;;14.60;;
21731;SDS011;11028;51.156;17.130;2022-11-11T07:54:43;25.58;;;14.27;;
21731;SDS011;11028;51.156;17.130;2022-11-11T08:02:20;27.95;;;13.60;;
21731;SDS011;11028;51.156;17.130;2022-11-11T08:09:56;30.33;;;14.30;;
21731;SDS011;11028;51.156;17.130;2022-11-11T08:17:37;32.00;;;14.52;;
21731;SDS011;11028;51.156;17.130;2022-11-11T08:25:12;24.38;;;13.77;;
21731;SDS011;11028;51.156;17.130;2022-11-11T08:32:49;25.73;;;13.82;;
21731;SDS011;11028;51.156;17.130;2022-11-11T08:40:31;17.73;;;9.97;;
21731;SDS011;11028;51.156;17.130;2022-11-11T08:48:08;23.73;;;11.52;;
21731;SDS011;11028;51.156;17.130;2022-11-11T08:55:44;21.48;;;11.85;;
21731;SDS011;11028;51.156;17.130;2022-11-11T09:03:21;25.02;;;11.02;;
21731;SDS011;11028;51.156;17.130;2022-11-11T09:10:57;20.27;;;10.38;;
21731;SDS011;11028;51.156;17.130;2022-11-11T09:18:53;21.13;;;9.93;;
21731;SDS011;11028;51.156;17.130;2022-11-11T09:26:31;17.08;;;9.85;;
21731;SDS011;11028;51.156;17.130;2022-11-11T09:34:09;17.23;;;9.40;;
21731;SDS011;11028;51.156;17.130;2022-11-11T09:41:50;21.35;;;9.90;;
21731;SDS011;11028;51.156;17.130;2022-11-11T09:49:35;14.57;;;8.67;;
21731;SDS011;11028;51.156;17.130;2022-11-11T09:57:13;16.13;;;9.50;;
21731;SDS011;11028;51.156;17.130;2022-11-11T10:04:54;15.80;;;8.32;;
21731;SDS011;11028;51.156;17.130;2022-11-11T10:12:34;16.80;;;7.53;;
21731;SDS011;11028;51.156;17.130;2022-11-11T10:20:15;22.80;;;8.50;;
21731;SDS011;11028;51.156;17.130;2022-11-11T10:27:53;34.60;;;9.68;;
21731;SDS011;11028;51.156;17.130;2022-11-11T10:35:32;14.77;;;7.35;;
21731;SDS011;11028;51.156;17.130;2022-11-11T10:43:10;21.80;;;7.38;;
21731;SDS011;11028;51.156;17.130;2022-11-11T10:50:53;9.75;;;5.53;;
21731;SDS011;11028;51.156;17.130;2022-11-11T10:58:33;9.10;;;4.85;;
21731;SDS011;11028;51.156;17.130;2022-11-11T11:06:12;10.23;;;5.10;;
21731;SDS011;11028;51.156;17.130;2022-11-11T11:13:51;10.00;;;5.28;;
21731;SDS011;11028;51.156;17.130;2022-11-11T11:21:29;15.30;;;6.43;;
21731;SDS011;11028;51.156;17.130;2022-11-11T11:29:23;13.85;;;6.30;;
21731;SDS011;11028;51.156;17.130;2022-11-11T11:37:04;10.10;;;5.88;;
21731;SDS011;11028;51.156;17.130;2022-11-11T11:44:40;12.93;;;4.97;;
21731;SDS011;11028;51.156;17.130;2022-11-11T11:52:18;13.93;;;4.50;;
21731;SDS011;11028;51.156;17.130;2022-11-11T11:59:57;9.43;;;5.40;;
21731;SDS011;11028;51.156;17.130;2022-11-11T12:07:41;8.38;;;4.43;;
21731;SDS011;11028;51.156;17.130;2022-11-11T12:15:24;11.07;;;5.28;;
21731;SDS011;11028;51.156;17.130;2022-11-11T12:23:09;12.02;;;5.03;;
21731;SDS011;11028;51.156;17.130;2022-11-11T12:30:59;8.50;;;4.90;;
21731;SDS011;11028;51.156;17.130;2022-11-11T12:38:49;9.00;;;5.47;;
21731;SDS011;11028;51.156;17.130;2022-11-11T12:46:28;8.43;;;4.40;;
21731;SDS011;11028;51.156;17.130;2022-11-11T13:11:12;11.00;;;5.40;;
21731;SDS011;11028;51.156;17.130;2022-11-11T13:18:52;7.93;;;4.25;;
21731;SDS011;11028;51.156;17.130;2022-11-11T13:26:32;9.90;;;3.47;;
21731;SDS011;11028;51.156;17.130;2022-11-11T13:34:14;5.53;;;2.80;;
21731;SDS011;11028;51.156;17.130;2022-11-11T13:41:51;8.98;;;4.32;;
21731;SDS011;11028;51.156;17.130;2022-11-11T13:49:30;8.60;;;5.28;;
21731;SDS011;11028;51.156;17.130;2022-11-11T14:22:30;10.93;;;5.95;;
21731;SDS011;11028;51.156;17.130;2022-11-11T14:30:09;8.95;;;5.85;;
21731;SDS011;11028;51.156;17.130;2022-11-11T14:37:54;10.40;;;6.78;;
21731;SDS011;11028;51.156;17.130;2022-11-11T14:45:51;13.32;;;7.07;;
21731;SDS011;11028;51.156;17.130;2022-11-11T14:53:33;12.13;;;6.75;;
21731;SDS011;11028;51.156;17.130;2022-11-11T15:08:48;18.02;;;9.15;;
21731;SDS011;11028;51.156;17.130;2022-11-11T15:16:33;21.90;;;10.75;;
21731;SDS011;11028;51.156;17.130;2022-11-11T15:24:23;16.65;;;9.45;;
21731;SDS011;11028;51.156;17.130;2022-11-11T15:32:05;23.33;;;12.38;;
21731;SDS011;11028;51.156;17.130;2022-11-11T15:39:45;25.65;;;13.32;;
21731;SDS011;11028;51.156;17.130;2022-11-11T15:47:23;20.98;;;11.23;;
21731;SDS011;11028;51.156;17.130;2022-11-11T16:03:47;22.35;;;12.10;;
21731;SDS011;11028;51.156;17.130;2022-11-11T16:11:23;24.23;;;12.95;;
21731;SDS011;11028;51.156;17.130;2022-11-11T16:19:01;19.45;;;12.02;;
21731;SDS011;11028;51.156;17.130;2022-11-11T16:26:37;22.48;;;11.45;;
21731;SDS011;11028;51.156;17.130;2022-11-11T16:34:29;20.58;;;11.85;;
21731;SDS011;11028;51.156;17.130;2022-11-11T16:42:15;31.33;;;15.25;;
21731;SDS011;11028;51.156;17.130;2022-11-11T16:50:00;27.30;;;13.93;;
21731;SDS011;11028;51.156;17.130;2022-11-11T17:06:07;23.60;;;13.38;;
21731;SDS011;11028;51.156;17.130;2022-11-11T17:13:42;25.63;;;12.70;;
21731;SDS011;11028;51.156;17.130;2022-11-11T17:21:20;26.65;;;12.77;;
21731;SDS011;11028;51.156;17.130;2022-11-11T17:28:55;28.10;;;13.23;;
21731;SDS011;11028;51.156;17.130;2022-11-11T17:36:32;23.35;;;13.10;;
21731;SDS011;11028;51.156;17.130;2022-11-11T17:44:08;27.88;;;14.45;;
21731;SDS011;11028;51.156;17.130;2022-11-11T17:51:47;27.98;;;15.02;;
21731;SDS011;11028;51.156;17.130;2022-11-11T17:59:34;36.00;;;16.65;;
21731;SDS011;11028;51.156;17.130;2022-11-11T18:07:14;31.80;;;16.30;;
21731;SDS011;11028;51.156;17.130;2022-11-11T18:14:50;44.35;;;19.90;;
21731;SDS011;11028;51.156;17.130;2022-11-11T18:22:27;35.92;;;19.50;;
21731;SDS011;11028;51.156;17.130;2022-11-11T18:30:03;33.35;;;17.10;;
21731;SDS011;11028;51.156;17.130;2022-11-11T18:37:43;39.63;;;18.33;;
21731;SDS011;11028;51.156;17.130;2022-11-11T18:45:19;35.25;;;18.75;;
21731;SDS011;11028;51.156;17.130;2022-11-11T18:52:56;40.72;;;18.98;;
21731;SDS011;11028;51.156;17.130;2022-11-11T19:00:32;43.83;;;20.40;;
21731;SDS011;11028;51.156;17.130;2022-11-11T19:08:09;45.60;;;22.25;;
21731;SDS011;11028;51.156;17.130;2022-11-11T19:15:44;33.97;;;17.50;;
21731;SDS011;11028;51.156;17.130;2022-11-11T19:23:21;39.08;;;19.00;;
21731;SDS011;11028;51.156;17.130;2022-11-11T19:31:00;39.25;;;19.40;;
21731;SDS011;11028;51.156;17.130;2022-11-11T19:38:39;36.80;;;20.20;;
21731;SDS011;11028;51.156;17.130;2022-11-11T19:46:16;40.45;;;21.08;;
21731;SDS011;11028;51.156;17.130;2022-11-11T19:53:53;46.25;;;20.40;;
21731;SDS011;11028;51.156;17.130;2022-11-11T20:01:29;42.47;;;21.73;;
21731;SDS011;11028;51.156;17.130;2022-11-11T20:09:08;40.88;;;20.95;;
21731;SDS011;11028;51.156;17.130;2022-11-11T20:16:43;47.05;;;21.88;;
21731;SDS011;11028;51.156;17.130;2022-11-11T20:24:20;41.38;;;21.63;;
21731;SDS011;11028;51.156;17.130;2022-11-11T20:31:57;43.05;;;22.85;;
21731;SDS011;11028;51.156;17.130;2022-11-11T20:39:34;47.78;;;24.38;;
21731;SDS011;11028;51.156;17.130;2022-11-11T20:47:09;48.92;;;25.05;;
21731;SDS011;11028;51.156;17.130;2022-11-11T20:54:47;52.65;;;24.55;;
21731;SDS011;11028;51.156;17.130;2022-11-11T21:02:23;50.40;;;25.77;;
21731;SDS011;11028;51.156;17.130;2022-11-11T21:10:00;56.55;;;27.80;;
21731;SDS011;11028;51.156;17.130;2022-11-11T21:17:36;45.60;;;25.75;;
21731;SDS011;11028;51.156;17.130;2022-11-11T21:25:13;44.72;;;24.63;;
21731;SDS011;11028;51.156;17.130;2022-11-11T21:32:49;49.10;;;26.02;;
21731;SDS011;11028;51.156;17.130;2022-11-11T21:40:25;46.38;;;25.63;;
21731;SDS011;11028;51.156;17.130;2022-11-11T21:48:01;53.65;;;27.65;;
21731;SDS011;11028;51.156;17.130;2022-11-11T21:55:38;54.45;;;24.98;;
21731;SDS011;11028;51.156;17.130;2022-11-11T22:03:13;45.45;;;22.08;;
21731;SDS011;11028;51.156;17.130;2022-11-11T22:10:50;42.22;;;20.52;;
21731;SDS011;11028;51.156;17.130;2022-11-11T22:18:25;36.70;;;18.98;;
21731;SDS011;11028;51.156;17.130;2022-11-11T22:26:03;30.38;;;15.65;;
21731;SDS011;11028;51.156;17.130;2022-11-11T22:33:40;30.75;;;16.55;;
21731;SDS011;11028;51.156;17.130;2022-11-11T22:41:19;30.85;;;15.25;;
21731;SDS011;11028;51.156;17.130;2022-11-11T22:48:57;33.80;;;17.05;;
21731;SDS011;11028;51.156;17.130;2022-11-11T22:56:35;35.65;;;16.75;;
21731;SDS011;11028;51.156;17.130;2022-11-11T23:04:10;36.08;;;16.45;;
21731;SDS011;11028;51.156;17.130;2022-11-11T23:11:47;31.08;;;15.60;;
21731;SDS011;11028;51.156;17.130;2022-11-11T23:19:23;27.95;;;14.60;;
21731;SDS011;11028;51.156;17.130;2022-11-11T23:27:00;29.38;;;14.07;;
21731;SDS011;11028;51.156;17.130;2022-11-11T23:34:35;31.13;;;16.02;;
21731;SDS011;11028;51.156;17.130;2022-11-11T23:42:12;32.85;;;16.30;;
21731;SDS011;11028;51.156;17.130;2022-11-11T23:49:48;27.30;;;14.45;;
21731;SDS011;11028;51.156;17.130;2022-11-11T23:57:25;33.83;;;17.17;;
